createdAt,value
2022-10-24T00:01:19.024Z,94486.81
2022-10-24T00:03:46.589Z,94495.72
2022-10-24T00:06:13.936Z,94489.66
2022-10-24T00:08:43.409Z,94487.56
2022-10-24T00:11:23.627Z,94484.13
2022-10-24T00:13:51.465Z,94483.13
2022-10-24T00:16:18.975Z,94486.00
2022-10-24T00:18:46.384Z,94488.25
2022-10-24T00:21:13.716Z,94491.28
2022-10-24T00:23:40.687Z,94489.22
2022-10-24T00:26:07.905Z,94487.22
2022-10-24T00:28:37.195Z,94491.81
2022-10-24T00:31:06.857Z,94488.56
2022-10-24T00:33:33.964Z,94501.41
2022-10-24T00:36:00.853Z,94501.78
2022-10-24T00:38:27.635Z,94493.84
2022-10-24T00:40:54.443Z,94499.72
2022-10-24T00:43:25.369Z,94521.47
2022-10-24T00:46:00.915Z,94515.16
2022-10-24T00:48:35.494Z,94517.94
2022-10-24T00:51:27.246Z,94518.13
2022-10-24T00:54:09.101Z,94517.66
2022-10-24T00:56:42.473Z,94515.06
2022-10-24T00:59:11.450Z,94511.41
2022-10-24T01:01:39.009Z,94511.84
2022-10-24T01:04:07.724Z,94509.00
2022-10-24T01:07:03.852Z,94512.44
2022-10-24T01:10:07.533Z,94523.13
2022-10-24T01:13:17.595Z,94537.34
2022-10-24T01:15:51.550Z,94536.16
2022-10-24T01:18:47.325Z,94530.88
2022-10-24T01:21:52.492Z,94518.44
2022-10-24T01:25:04.182Z,94529.25
2022-10-24T01:28:02.042Z,94516.84
2022-10-24T01:30:33.002Z,94506.88
2022-10-24T01:33:11.064Z,94499.13
2022-10-24T01:35:43.721Z,94501.97
2022-10-24T01:38:17.302Z,94510.28
2022-10-24T01:41:01.466Z,94501.94
2022-10-24T01:43:41.010Z,94514.06
2022-10-24T01:46:16.838Z,94514.91
2022-10-24T01:48:50.681Z,94524.28
2022-10-24T01:51:21.592Z,94513.72
2022-10-24T01:53:49.452Z,94520.44
2022-10-24T01:56:16.343Z,94522.06
2022-10-24T01:58:43.245Z,94522.72
2022-10-24T02:01:19.671Z,94503.56
2022-10-24T02:03:57.306Z,94505.00
2022-10-24T02:06:35.083Z,94501.94
2022-10-24T02:09:08.302Z,94506.78
2022-10-24T02:11:36.270Z,94516.78
2022-10-24T02:14:28.787Z,94488.97
2022-10-24T02:16:55.603Z,94498.69
2022-10-24T02:19:22.649Z,94517.78
2022-10-24T02:22:15.919Z,94503.28
2022-10-24T02:24:54.701Z,94493.31
2022-10-24T02:27:29.080Z,94488.41
2022-10-24T02:30:09.846Z,94470.50
2022-10-24T02:32:42.556Z,94482.34
2022-10-24T02:35:11.902Z,94489.03
2022-10-24T02:37:48.141Z,94491.31
2022-10-24T02:40:18.125Z,94495.56
2022-10-24T02:42:47.985Z,94495.34
2022-10-24T02:45:15.903Z,94490.47
2022-10-24T02:47:45.413Z,94494.94
2022-10-24T02:50:13.520Z,94505.16
2022-10-24T02:52:42.816Z,94487.66
2022-10-24T02:55:11.741Z,94503.13
2022-10-24T02:57:39.479Z,94490.53
2022-10-24T03:00:10.101Z,94495.84
2022-10-24T03:02:36.917Z,94496.19
2022-10-24T03:05:04.241Z,94494.19
2022-10-24T03:10:17.981Z,94487.72
2022-10-24T03:12:45.296Z,94485.06
2022-10-24T03:15:12.853Z,94485.69
2022-10-24T03:17:39.686Z,94474.69
2022-10-24T03:20:07.381Z,94494.03
2022-10-24T03:22:34.229Z,94490.38
2022-10-24T03:25:03.329Z,94501.78
2022-10-24T03:27:30.572Z,94499.94
2022-10-24T03:29:57.572Z,94508.13
2022-10-24T03:32:24.380Z,94489.63
2022-10-24T03:34:51.257Z,94469.91
2022-10-24T03:37:19.429Z,94469.06
2022-10-24T03:39:46.302Z,94476.88
2022-10-24T03:42:13.419Z,94483.75
2022-10-24T03:44:40.935Z,94483.41
2022-10-24T03:47:07.725Z,94487.72
2022-10-24T03:49:34.677Z,94491.19
2022-10-24T03:52:01.536Z,94492.38
2022-10-24T03:54:28.359Z,94489.94
2022-10-24T03:56:55.598Z,94491.81
2022-10-24T03:59:22.634Z,94493.50
2022-10-24T04:01:49.822Z,94490.84
2022-10-24T04:04:16.791Z,94476.94
2022-10-24T04:06:43.554Z,94497.38
2022-10-24T04:09:10.444Z,94500.66
2022-10-24T04:11:37.278Z,94509.59
2022-10-24T04:14:05.579Z,94515.88
2022-10-24T04:16:34.907Z,94523.38
2022-10-24T04:19:02.583Z,94503.00
2022-10-24T04:21:29.815Z,94492.66
2022-10-24T04:23:57.120Z,94502.94
2022-10-24T04:26:24.487Z,94501.31
2022-10-24T04:28:51.296Z,94500.69
2022-10-24T04:31:22.435Z,94481.19
2022-10-24T04:33:50.635Z,94485.91
2022-10-24T04:36:17.476Z,94502.41
2022-10-24T04:38:44.317Z,94497.97
2022-10-24T04:41:12.234Z,94500.44
2022-10-24T04:43:39.910Z,94508.72
2022-10-24T04:46:07.147Z,94500.63
2022-10-24T04:48:35.135Z,94511.81
2022-10-24T04:51:01.980Z,94515.91
2022-10-24T04:53:28.804Z,94516.88
2022-10-24T04:55:55.671Z,94517.31
2022-10-24T04:58:22.457Z,94508.31
2022-10-24T05:00:50.459Z,94509.19
2022-10-24T05:03:18.640Z,94504.50
2022-10-24T05:05:46.506Z,94505.53
2022-10-24T05:08:13.443Z,94503.88
2022-10-24T05:10:40.293Z,94496.19
2022-10-24T05:13:07.685Z,94483.44
2022-10-24T05:15:34.507Z,94474.72
2022-10-24T05:18:01.468Z,94470.00
2022-10-24T05:20:28.624Z,94478.31
2022-10-24T05:22:55.984Z,94479.53
2022-10-24T05:25:23.561Z,94486.44
2022-10-24T05:27:50.401Z,94467.72
2022-10-24T05:30:17.261Z,94476.06
2022-10-24T05:32:44.737Z,94486.91
2022-10-24T05:35:12.011Z,94480.31
2022-10-24T05:37:39.286Z,94473.78
2022-10-24T05:40:09.714Z,94471.72
2022-10-24T05:42:37.966Z,94472.75
2022-10-24T05:45:07.481Z,94458.28
2022-10-24T05:47:34.541Z,94453.38
2022-10-24T05:50:01.459Z,94445.44
2022-10-24T05:52:28.372Z,94440.81
2022-10-24T05:55:06.378Z,94445.25
2022-10-24T05:57:34.673Z,94426.72
2022-10-24T06:00:01.592Z,94431.22
2022-10-24T06:02:28.545Z,94431.41
2022-10-24T06:04:57.153Z,94442.75
2022-10-24T06:07:24.005Z,94433.16
2022-10-24T06:09:51.391Z,94451.50
2022-10-24T06:12:18.235Z,94452.53
2022-10-24T06:14:45.104Z,94457.38
2022-10-24T06:17:12.188Z,94459.34
2022-10-24T06:19:40.099Z,94466.41
2022-10-24T06:22:08.653Z,94482.31
2022-10-24T06:24:37.500Z,94496.63
2022-10-24T06:27:06.101Z,94491.03
2022-10-24T06:29:33.453Z,94503.75
2022-10-24T06:32:00.341Z,94506.00
2022-10-24T06:34:27.617Z,94510.81
2022-10-24T06:36:57.336Z,94524.50
2022-10-24T06:39:24.273Z,94518.75
2022-10-24T06:41:51.083Z,94507.63
2022-10-24T06:44:17.879Z,94510.47
2022-10-24T06:46:45.088Z,94504.44
2022-10-24T06:49:13.326Z,94501.41
2022-10-24T06:51:41.195Z,94500.03
2022-10-24T06:54:08.028Z,94496.34
2022-10-24T06:56:35.023Z,94499.91
2022-10-24T06:59:01.869Z,94504.56
2022-10-24T07:01:28.936Z,94507.81
2022-10-24T07:03:55.806Z,94511.09
2022-10-24T07:06:27.055Z,94524.81
2022-10-24T07:08:56.837Z,94517.13
2022-10-24T07:11:24.058Z,94504.66
2022-10-24T07:13:50.928Z,94502.84
2022-10-24T07:16:18.223Z,94503.84
2022-10-24T07:18:45.597Z,94512.06
2022-10-24T07:21:20.615Z,94520.38
2022-10-24T07:23:47.552Z,94528.56
2022-10-24T07:26:16.607Z,94531.22
2022-10-24T07:28:46.760Z,94548.72
2022-10-24T07:31:17.871Z,94545.78
2022-10-24T07:33:44.785Z,94550.72
2022-10-24T07:36:20.041Z,94548.28
2022-10-24T07:38:52.356Z,94549.94
2022-10-24T07:41:19.302Z,94554.63
2022-10-24T07:43:46.518Z,94550.19
2022-10-24T07:46:16.463Z,94560.97
2022-10-24T07:48:43.522Z,94563.38
2022-10-24T07:51:14.163Z,94554.19
2022-10-24T07:53:42.770Z,94544.28
2022-10-24T07:56:17.270Z,94555.53
2022-10-24T07:58:45.864Z,94541.03
2022-10-24T08:01:21.318Z,94518.19
2022-10-24T08:03:49.028Z,94511.09
2022-10-24T08:06:26.640Z,94488.72
2022-10-24T08:08:53.454Z,94459.22
2022-10-24T08:11:24.087Z,94442.69
2022-10-24T08:13:53.290Z,94452.84
2022-10-24T08:16:23.706Z,94469.78
2022-10-24T08:18:52.608Z,94478.41
2022-10-24T08:21:21.797Z,94491.31
2022-10-24T08:23:52.598Z,94502.97
2022-10-24T08:26:23.431Z,94506.59
2022-10-24T08:28:50.738Z,94510.50
2022-10-24T08:31:21.363Z,94538.00
2022-10-24T08:33:51.350Z,94560.50
2022-10-24T08:36:34.120Z,94565.78
2022-10-24T08:39:01.869Z,94560.06
2022-10-24T08:41:37.822Z,94553.56
2022-10-24T08:44:21.457Z,94558.25
2022-10-24T08:47:25.654Z,94548.88
2022-10-24T08:50:06.273Z,94556.19
2022-10-24T08:52:44.277Z,94546.56
2022-10-24T08:55:44.315Z,94551.06
2022-10-24T08:58:13.381Z,94558.38
2022-10-24T09:00:45.913Z,94576.31
2022-10-24T09:03:50.869Z,94568.97
2022-10-24T09:06:24.624Z,94582.47
2022-10-24T09:08:58.437Z,94585.25
2022-10-24T09:11:31.907Z,94593.44
2022-10-24T09:14:02.769Z,94594.44
2022-10-24T09:16:29.673Z,94598.09
2022-10-24T09:18:57.893Z,94620.78
2022-10-24T09:21:24.721Z,94635.63
2022-10-24T09:23:52.268Z,94631.38
2022-10-24T09:26:29.229Z,94626.47
2022-10-24T09:28:57.199Z,94626.44
2022-10-24T09:31:26.673Z,94619.56
2022-10-24T09:33:54.352Z,94615.03
2022-10-24T09:36:25.131Z,94626.44
2022-10-24T09:38:52.038Z,94626.41
2022-10-24T09:41:28.347Z,94624.34
2022-10-24T09:44:01.004Z,94623.88
2022-10-24T09:46:48.094Z,94619.47
2022-10-24T09:49:22.645Z,94637.38
2022-10-24T09:52:17.493Z,94634.06
2022-10-24T09:54:45.322Z,94635.72
2022-10-24T09:57:12.043Z,94652.00
2022-10-24T09:59:48.758Z,94643.66
2022-10-24T10:02:28.568Z,94653.09
2022-10-24T10:05:04.488Z,94658.06
2022-10-24T10:07:38.009Z,94675.19
2022-10-24T10:10:35.201Z,94680.72
2022-10-24T10:13:15.558Z,94672.16
2022-10-24T10:16:09.939Z,94648.59
2022-10-24T10:18:38.445Z,94618.06
2022-10-24T10:21:21.818Z,94605.38
2022-10-24T10:23:55.180Z,94607.16
2022-10-24T10:26:46.597Z,94599.38
2022-10-24T10:29:19.228Z,94609.25
2022-10-24T10:31:50.695Z,94603.94
2022-10-24T10:34:21.957Z,94592.13
2022-10-24T10:37:13.375Z,94615.28
2022-10-24T10:40:31.816Z,94638.44
2022-10-24T10:43:31.226Z,94640.16
2022-10-24T10:46:47.985Z,94611.47
2022-10-24T10:49:31.945Z,94608.44
2022-10-24T10:52:20.153Z,94609.69
2022-10-24T10:55:08.987Z,94654.75
2022-10-24T10:58:25.776Z,94661.34
2022-10-24T11:01:06.798Z,94672.44
2022-10-24T11:04:06.742Z,94679.56
2022-10-24T11:06:54.286Z,94685.91
2022-10-24T11:09:30.229Z,94684.03
2022-10-24T11:12:18.399Z,94686.47
2022-10-24T11:14:55.497Z,94675.69
2022-10-24T11:17:28.405Z,94649.56
2022-10-24T11:20:21.589Z,94614.09
2022-10-24T11:22:55.938Z,94593.06
2022-10-24T11:25:35.433Z,94596.63
2022-10-24T11:28:17.481Z,94610.47
2022-10-24T11:31:13.861Z,94625.91
2022-10-24T11:33:56.957Z,94614.22
2022-10-24T11:36:35.379Z,94590.66
2022-10-24T11:39:26.123Z,94625.56
2022-10-24T11:42:12.922Z,94611.84
2022-10-24T11:45:05.596Z,94539.00
2022-10-24T11:47:46.657Z,94470.78
2022-10-24T11:50:36.304Z,94437.84
2022-10-24T11:53:14.972Z,94453.34
2022-10-24T11:55:47.738Z,94503.66
2022-10-24T11:58:18.976Z,94535.25
2022-10-24T12:00:51.857Z,94559.97
2022-10-24T12:04:02.927Z,94555.09
2022-10-24T12:06:48.136Z,94537.22
2022-10-24T12:09:36.087Z,94542.94
2022-10-24T12:13:06.121Z,94540.09
2022-10-24T12:16:31.737Z,94540.47
2022-10-24T12:19:11.895Z,94556.81
2022-10-24T12:21:46.890Z,94571.44
2022-10-24T12:24:33.126Z,94576.47
2022-10-24T12:27:07.021Z,94567.00
2022-10-24T12:29:36.445Z,94570.28
2022-10-24T12:32:36.457Z,94577.13
2022-10-24T12:35:31.515Z,94583.81
2022-10-24T12:37:59.570Z,94573.19
2022-10-24T12:40:58.713Z,94573.25
2022-10-24T12:43:33.870Z,94576.03
2022-10-24T12:46:23.549Z,94578.72
2022-10-24T12:48:59.364Z,94581.16
2022-10-24T12:51:37.872Z,94577.75
2022-10-24T12:54:14.593Z,94577.16
2022-10-24T12:56:50.615Z,94574.72
2022-10-24T12:59:21.657Z,94576.97
2022-10-24T13:01:51.467Z,94577.38
2022-10-24T13:08:16.012Z,94581.81
2022-10-24T13:11:10.109Z,94576.81
2022-10-24T13:13:52.582Z,94554.94
2022-10-24T13:16:42.528Z,94560.50
2022-10-24T13:19:17.123Z,94553.84
2022-10-24T13:21:51.870Z,94567.13
2022-10-24T13:24:20.097Z,94560.25
2022-10-24T13:26:53.665Z,94553.47
2022-10-24T13:29:41.333Z,94545.53
2022-10-24T13:32:08.016Z,94553.63
2022-10-24T13:34:50.623Z,94545.13
2022-10-24T13:37:36.626Z,94553.97
2022-10-24T13:40:11.148Z,94540.56
2022-10-24T13:42:51.902Z,94550.81
2022-10-24T13:45:47.289Z,94553.47
2022-10-24T13:48:23.804Z,94548.91
2022-10-24T13:51:32.618Z,94558.06
2022-10-24T13:54:07.215Z,94555.31
2022-10-24T13:56:40.128Z,94553.47
2022-10-24T13:59:31.508Z,94559.41
2022-10-24T14:02:03.641Z,94556.56
2022-10-24T14:04:31.017Z,94564.50
2022-10-24T14:07:03.890Z,94572.63
2022-10-24T14:09:43.272Z,94576.84
2022-10-24T14:12:22.077Z,94578.69
2022-10-24T14:14:51.158Z,94581.81
2022-10-24T14:17:22.979Z,94586.22
2022-10-24T14:20:11.480Z,94580.75
2022-10-24T14:22:41.696Z,94575.97
2022-10-24T14:25:36.232Z,94593.53
2022-10-24T14:28:16.599Z,94585.00
2022-10-24T14:30:58.733Z,94586.03
2022-10-24T14:33:42.604Z,94605.19
2022-10-24T14:36:10.258Z,94604.56
2022-10-24T14:38:37.545Z,94598.06
2022-10-24T14:41:09.661Z,94599.53
2022-10-24T14:43:42.180Z,94591.47
2022-10-24T14:46:12.353Z,94588.44
2022-10-24T14:48:43.420Z,94585.56
2022-10-24T14:51:39.021Z,94584.38
2022-10-24T14:54:22.232Z,94593.84
2022-10-24T14:56:50.376Z,94584.28
2022-10-24T14:59:29.478Z,94599.59
2022-10-24T15:02:03.856Z,94590.66
2022-10-24T15:04:45.838Z,94592.25
2022-10-24T15:07:20.923Z,94597.56
2022-10-24T15:09:59.372Z,94600.47
2022-10-24T15:12:38.129Z,94603.91
2022-10-24T15:15:25.914Z,94607.81
2022-10-24T15:17:59.660Z,94593.50
2022-10-24T15:20:28.661Z,94581.66
2022-10-24T15:22:58.940Z,94608.63
2022-10-24T15:25:32.923Z,94617.56
2022-10-24T15:28:01.544Z,94621.97
2022-10-24T15:30:37.483Z,94625.28
2022-10-24T15:33:06.576Z,94600.56
2022-10-24T15:35:41.053Z,94606.53
2022-10-24T15:38:18.708Z,94596.66
2022-10-24T15:40:49.015Z,94600.16
2022-10-24T15:43:19.997Z,94612.16
2022-10-24T15:45:47.046Z,94599.88
2022-10-24T15:48:13.789Z,94613.88
2022-10-24T15:50:45.650Z,94609.19
2022-10-24T15:53:22.151Z,94597.56
2022-10-24T15:55:58.361Z,94593.47
2022-10-24T15:58:25.170Z,94604.84
2022-10-24T16:00:52.081Z,94590.53
2022-10-24T16:03:23.517Z,94592.44
2022-10-24T16:05:55.003Z,94585.16
2022-10-24T16:08:23.429Z,94573.00
2022-10-24T16:10:52.696Z,94586.41
2022-10-24T16:13:22.247Z,94608.19
2022-10-24T16:15:50.185Z,94598.25
2022-10-24T16:18:17.533Z,94586.81
2022-10-24T16:20:44.306Z,94591.69
2022-10-24T16:23:16.640Z,94590.03
2022-10-24T16:25:43.938Z,94586.31
2022-10-24T16:28:11.220Z,94598.53
2022-10-24T16:30:40.651Z,94604.06
2022-10-24T16:33:08.305Z,94612.75
2022-10-24T16:35:37.921Z,94608.59
2022-10-24T16:38:06.965Z,94609.06
2022-10-24T16:40:43.143Z,94594.25
2022-10-24T16:43:13.052Z,94601.06
2022-10-24T16:45:40.514Z,94603.25
2022-10-24T16:48:07.385Z,94597.09
2022-10-24T16:50:34.190Z,94600.81
2022-10-24T16:53:04.766Z,94596.00
2022-10-24T16:55:32.360Z,94609.16
2022-10-24T16:57:59.958Z,94609.31
2022-10-24T17:00:27.445Z,94603.19
2022-10-24T17:02:56.172Z,94596.53
2022-10-24T17:05:26.801Z,94595.69
2022-10-24T17:07:54.081Z,94616.91
2022-10-24T17:10:23.861Z,94604.19
2022-10-24T17:12:52.174Z,94606.19
2022-10-24T17:15:22.210Z,94615.75
2022-10-24T17:17:50.294Z,94624.88
2022-10-24T17:20:17.831Z,94618.47
2022-10-24T17:22:46.737Z,94612.44
2022-10-24T17:25:25.261Z,94623.19
2022-10-24T17:27:53.226Z,94611.63
2022-10-24T17:30:32.254Z,94614.31
2022-10-24T17:32:59.561Z,94628.09
2022-10-24T17:35:27.446Z,94625.16
2022-10-24T17:38:38.713Z,94628.97
2022-10-24T17:41:22.717Z,94626.81
2022-10-24T17:43:49.878Z,94605.31
2022-10-24T17:46:17.124Z,94615.69
2022-10-24T17:48:43.895Z,94621.41
2022-10-24T17:51:15.088Z,94606.94
2022-10-24T17:53:41.918Z,94622.22
2022-10-24T17:56:10.170Z,94615.50
2022-10-24T17:58:36.925Z,94621.16
2022-10-24T18:01:04.029Z,94629.53
2022-10-24T18:03:30.943Z,94617.72
2022-10-24T18:06:03.544Z,94622.63
2022-10-24T18:08:30.699Z,94638.09
2022-10-24T18:11:03.160Z,94635.94
2022-10-24T18:13:30.043Z,94637.94
2022-10-24T18:15:56.738Z,94637.66
2022-10-24T18:18:23.710Z,94638.97
2022-10-24T18:20:50.654Z,94633.69
2022-10-24T18:23:17.449Z,94626.75
2022-10-24T18:25:44.164Z,94629.75
2022-10-24T18:28:11.033Z,94638.78
2022-10-24T18:30:37.768Z,94636.66
2022-10-24T18:33:04.645Z,94634.78
2022-10-24T18:35:34.148Z,94636.69
2022-10-24T18:38:02.138Z,94638.97
2022-10-24T18:40:29.485Z,94655.00
2022-10-24T18:43:05.206Z,94656.16
2022-10-24T18:45:33.220Z,94656.63
2022-10-24T18:48:00.344Z,94663.81
2022-10-24T18:50:27.445Z,94661.63
2022-10-24T18:53:10.809Z,94676.47
2022-10-24T18:55:38.105Z,94675.28
2022-10-24T18:58:04.985Z,94677.31
2022-10-24T19:00:38.198Z,94672.34
2022-10-24T19:03:29.565Z,94685.97
2022-10-24T19:06:31.245Z,94684.69
2022-10-24T19:08:58.141Z,94683.41
2022-10-24T19:11:25.006Z,94686.75
2022-10-24T19:13:51.971Z,94686.19
2022-10-24T19:16:28.611Z,94676.97
2022-10-24T19:19:00.269Z,94680.97
2022-10-24T19:21:27.030Z,94668.19
2022-10-24T19:23:54.081Z,94673.81
2022-10-24T19:26:20.946Z,94673.81
2022-10-24T19:28:47.729Z,94670.63
2022-10-24T19:31:15.824Z,94680.81
2022-10-24T19:33:43.137Z,94691.69
2022-10-24T19:36:13.370Z,94675.59
2022-10-24T19:38:43.751Z,94673.66
2022-10-24T19:41:11.801Z,94693.41
2022-10-24T19:43:38.665Z,94673.78
2022-10-24T19:46:19.298Z,94698.06
2022-10-24T19:48:53.133Z,94684.91
2022-10-24T19:51:21.047Z,94681.31
2022-10-24T19:53:49.755Z,94680.66
2022-10-24T19:56:25.139Z,94687.22
2022-10-24T19:58:53.762Z,94692.38
2022-10-24T20:01:25.038Z,94681.97
2022-10-24T20:03:52.420Z,94699.75
2022-10-24T20:06:19.519Z,94714.38
2022-10-24T20:08:48.065Z,94701.91
2022-10-24T20:11:15.796Z,94691.25
2022-10-24T20:13:43.390Z,94697.03
2022-10-24T20:16:13.570Z,94714.63
2022-10-24T20:18:43.446Z,94720.69
2022-10-24T20:21:16.321Z,94707.56
2022-10-24T20:23:43.114Z,94719.41
2022-10-24T20:26:17.075Z,94711.53
2022-10-24T20:28:47.161Z,94726.50
2022-10-24T20:31:38.259Z,94769.41
2022-10-24T20:34:11.158Z,94787.81
2022-10-24T20:36:41.732Z,94794.25
2022-10-24T20:39:09.175Z,94788.81
2022-10-24T20:41:36.725Z,94791.44
2022-10-24T20:44:07.015Z,94777.63
2022-10-24T20:46:35.225Z,94781.44
2022-10-24T20:49:02.214Z,94796.22
2022-10-24T20:51:28.977Z,94790.13
2022-10-24T20:53:55.802Z,94796.06
2022-10-24T20:56:26.089Z,94808.88
2022-10-24T20:58:55.238Z,94775.34
2022-10-24T21:01:29.135Z,94786.53
2022-10-24T21:03:58.245Z,94789.94
2022-10-24T21:06:33.402Z,94774.66
2022-10-24T21:09:06.290Z,94765.47
2022-10-24T21:11:34.589Z,94764.00
2022-10-24T21:14:08.134Z,94769.75
2022-10-24T21:16:35.001Z,94768.44
2022-10-24T21:19:02.538Z,94771.88
2022-10-24T21:21:29.292Z,94775.34
2022-10-24T21:24:02.453Z,94768.44
2022-10-24T21:26:33.973Z,94760.38
2022-10-24T21:29:08.979Z,94772.22
2022-10-24T21:31:41.718Z,94780.94
2022-10-24T21:34:08.451Z,94770.41
2022-10-24T21:36:35.297Z,94778.63
2022-10-24T21:39:02.030Z,94777.97
2022-10-24T21:41:28.933Z,94787.69
2022-10-24T21:43:55.799Z,94796.22
2022-10-24T21:46:29.338Z,94802.47
2022-10-24T21:48:57.207Z,94810.69
2022-10-24T21:51:33.284Z,94802.97
2022-10-24T21:54:16.882Z,94811.34
2022-10-24T21:56:43.699Z,94797.00
2022-10-24T21:59:17.276Z,94815.41
2022-10-24T22:01:46.752Z,94814.78
2022-10-24T22:04:14.873Z,94816.06
2022-10-24T22:06:42.499Z,94818.19
2022-10-24T22:09:17.292Z,94810.47
2022-10-24T22:11:45.044Z,94819.31
2022-10-24T22:14:15.472Z,94810.09
2022-10-24T22:16:43.380Z,94825.56
2022-10-24T22:19:12.520Z,94828.19
2022-10-24T22:21:45.723Z,94819.66
2022-10-24T22:24:23.952Z,94823.25
2022-10-24T22:26:51.833Z,94825.22
2022-10-24T22:29:23.577Z,94802.56
2022-10-24T22:31:52.475Z,94830.84
2022-10-24T22:34:25.266Z,94833.78
2022-10-24T22:37:20.447Z,94823.63
2022-10-24T22:39:47.546Z,94808.13
2022-10-24T22:42:19.168Z,94835.44
2022-10-24T22:44:48.745Z,94829.78
2022-10-24T22:47:58.156Z,94833.44
2022-10-24T22:50:53.365Z,94829.13
2022-10-24T22:53:31.336Z,94825.34
2022-10-24T22:56:19.925Z,94818.31
2022-10-24T22:58:47.351Z,94816.34
2022-10-24T23:01:37.859Z,94834.41
2022-10-24T23:04:25.178Z,94844.19
2022-10-24T23:07:09.763Z,94840.94
2022-10-24T23:09:36.521Z,94841.78
2022-10-24T23:12:15.020Z,94849.44
2022-10-24T23:14:43.018Z,94843.84
2022-10-24T23:17:14.037Z,94857.00
2022-10-24T23:19:45.907Z,94848.63
2022-10-24T23:22:32.910Z,94849.44
2022-10-24T23:25:01.480Z,94852.06
2022-10-24T23:27:39.296Z,94861.13
2022-10-24T23:30:22.075Z,94850.75
2022-10-24T23:32:51.028Z,94858.13
2022-10-24T23:35:20.082Z,94859.38
2022-10-24T23:37:49.944Z,94868.84
2022-10-24T23:40:37.304Z,94875.44
2022-10-24T23:43:04.932Z,94890.00
2022-10-24T23:45:37.289Z,94878.59
2022-10-24T23:48:30.157Z,94884.19
2022-10-24T23:51:12.310Z,94882.25
2022-10-24T23:53:51.435Z,94880.09
2022-10-24T23:56:24.732Z,94866.16
2022-10-24T23:58:52.440Z,94863.38
